createdAt,value
2022-09-26T00:00:05.638Z,20.08
2022-09-26T00:02:32.299Z,20.08
2022-09-26T00:04:58.875Z,20.07
2022-09-26T00:07:25.509Z,20.07
2022-09-26T00:09:52.061Z,20.08
2022-09-26T00:12:18.606Z,20.07
2022-09-26T00:14:45.160Z,20.06
2022-09-26T00:17:11.769Z,20.07
2022-09-26T00:19:40.846Z,20.06
2022-09-26T00:22:07.411Z,20.06
2022-09-26T00:24:34.164Z,20.06
2022-09-26T00:27:00.892Z,20.05
2022-09-26T00:29:27.517Z,20.06
2022-09-26T00:31:54.108Z,20.06
2022-09-26T00:34:20.858Z,20.06
2022-09-26T00:36:47.451Z,20.05
2022-09-26T00:39:14.758Z,20.06
2022-09-26T00:41:41.421Z,20.04
2022-09-26T00:44:46.185Z,20.05
2022-09-26T00:47:27.183Z,20.05
2022-09-26T00:49:59.650Z,20.04
2022-09-26T00:52:29.018Z,20.03
2022-09-26T00:54:56.214Z,20.03
2022-09-26T00:57:24.956Z,20.05
2022-09-26T00:59:55.060Z,20.04
2022-09-26T01:02:22.043Z,20.03
2022-09-26T01:04:48.785Z,20.03
2022-09-26T01:07:18.233Z,20.03
2022-09-26T01:09:44.774Z,20.03
2022-09-26T01:12:14.211Z,20.03
2022-09-26T01:14:41.188Z,20.02
2022-09-26T01:17:07.942Z,20.02
2022-09-26T01:19:52.292Z,20.03
2022-09-26T01:22:40.873Z,20.02
2022-09-26T01:25:36.127Z,20.02
2022-09-26T01:28:36.897Z,20.02
2022-09-26T01:31:25.097Z,20.00
2022-09-26T01:34:32.050Z,20.01
2022-09-26T01:37:14.470Z,20.01
2022-09-26T01:39:40.914Z,20.00
2022-09-26T01:42:23.825Z,20.01
2022-09-26T01:44:51.619Z,20.00
2022-09-26T01:47:52.986Z,20.00
2022-09-26T01:50:30.029Z,20.00
2022-09-26T01:53:21.061Z,20.01
2022-09-26T01:55:50.553Z,20.00
2022-09-26T01:58:27.507Z,19.99
2022-09-26T02:00:54.816Z,19.99
2022-09-26T02:03:22.510Z,19.99
2022-09-26T02:05:58.476Z,19.99
2022-09-26T02:08:34.244Z,19.98
2022-09-26T02:11:04.743Z,19.99
2022-09-26T02:13:52.133Z,19.99
2022-09-26T02:16:25.943Z,19.98
2022-09-26T02:19:02.995Z,19.98
2022-09-26T02:21:29.929Z,19.99
2022-09-26T02:23:56.500Z,19.99
2022-09-26T02:26:23.703Z,19.98
2022-09-26T02:28:50.459Z,19.98
2022-09-26T02:31:22.063Z,19.98
2022-09-26T02:33:52.331Z,19.98
2022-09-26T02:36:19.324Z,19.97
2022-09-26T02:38:45.909Z,19.97
2022-09-26T02:41:52.160Z,19.98
2022-09-26T02:44:20.792Z,19.97
2022-09-26T02:47:25.596Z,19.97
2022-09-26T02:50:02.357Z,19.98
2022-09-26T02:52:46.307Z,19.97
2022-09-26T02:55:27.175Z,19.96
2022-09-26T02:58:05.905Z,19.96
2022-09-26T03:01:20.206Z,19.96
2022-09-26T03:03:55.110Z,19.96
2022-09-26T03:06:24.518Z,19.94
2022-09-26T03:08:51.209Z,19.94
2022-09-26T03:11:20.820Z,19.95
2022-09-26T03:13:53.155Z,19.95
2022-09-26T03:16:20.375Z,19.95
2022-09-26T03:18:55.380Z,19.94
2022-09-26T03:21:22.180Z,19.94
2022-09-26T03:23:49.791Z,19.94
2022-09-26T03:26:18.998Z,19.94
2022-09-26T03:28:45.733Z,19.93
2022-09-26T03:31:12.465Z,19.94
2022-09-26T03:33:41.037Z,19.94
2022-09-26T03:36:09.582Z,19.93
2022-09-26T03:38:36.199Z,19.93
2022-09-26T03:41:02.895Z,19.92
2022-09-26T03:43:29.760Z,19.93
2022-09-26T03:45:56.556Z,19.92
2022-09-26T03:48:23.448Z,19.91
2022-09-26T03:50:50.041Z,19.92
2022-09-26T03:53:16.606Z,19.92
2022-09-26T03:55:43.248Z,19.91
2022-09-26T03:58:10.297Z,19.91
2022-09-26T04:00:38.891Z,19.91
2022-09-26T04:03:08.187Z,19.92
2022-09-26T04:05:34.946Z,19.91
2022-09-26T04:08:03.088Z,19.92
2022-09-26T04:10:29.670Z,19.92
2022-09-26T04:12:57.033Z,19.92
2022-09-26T04:15:23.573Z,19.93
2022-09-26T04:17:50.271Z,19.93
2022-09-26T04:20:16.904Z,19.93
2022-09-26T04:22:43.480Z,19.94
2022-09-26T04:25:10.347Z,19.93
2022-09-26T04:27:38.010Z,19.94
2022-09-26T04:30:04.959Z,19.95
2022-09-26T04:32:31.585Z,19.95
2022-09-26T04:35:00.829Z,19.95
2022-09-26T04:37:27.590Z,19.95
2022-09-26T04:39:54.575Z,19.95
2022-09-26T04:42:21.686Z,19.96
2022-09-26T04:44:48.255Z,19.95
2022-09-26T04:47:14.826Z,19.96
2022-09-26T04:49:41.380Z,19.95
2022-09-26T04:52:07.963Z,19.95
2022-09-26T04:54:37.419Z,19.97
2022-09-26T04:57:05.773Z,19.95
2022-09-26T04:59:32.912Z,19.95
2022-09-26T05:01:59.502Z,19.97
2022-09-26T05:04:27.743Z,19.98
2022-09-26T05:06:57.930Z,19.98
2022-09-26T05:09:25.158Z,19.97
2022-09-26T05:11:52.154Z,19.97
2022-09-26T05:14:20.822Z,19.98
2022-09-26T05:16:47.595Z,19.97
2022-09-26T05:19:14.500Z,19.97
2022-09-26T05:21:43.032Z,19.98
2022-09-26T05:24:28.244Z,19.98
2022-09-26T05:26:55.576Z,19.98
2022-09-26T05:29:22.171Z,19.98
2022-09-26T05:31:48.906Z,19.98
2022-09-26T05:34:19.610Z,19.98
2022-09-26T05:36:46.970Z,19.98
2022-09-26T05:39:32.107Z,19.98
2022-09-26T05:41:58.934Z,19.98
2022-09-26T05:44:25.826Z,19.99
2022-09-26T05:46:52.648Z,19.98
2022-09-26T05:49:19.308Z,19.98
2022-09-26T05:51:46.519Z,19.99
2022-09-26T05:54:15.583Z,19.98
2022-09-26T05:56:42.123Z,19.99
2022-09-26T05:59:09.064Z,19.98
2022-09-26T06:01:36.113Z,19.95
2022-09-26T06:04:05.671Z,19.92
2022-09-26T06:06:32.524Z,19.89
2022-09-26T06:09:00.036Z,19.87
2022-09-26T06:11:32.368Z,19.84
2022-09-26T06:14:01.846Z,19.82
2022-09-26T06:16:28.702Z,19.80
2022-09-26T06:18:55.988Z,19.80
2022-09-26T06:21:23.108Z,19.82
2022-09-26T06:23:49.806Z,19.84
2022-09-26T06:26:20.093Z,19.87
2022-09-26T06:28:47.458Z,19.88
2022-09-26T06:31:16.866Z,19.90
2022-09-26T06:33:43.602Z,19.91
2022-09-26T06:36:10.922Z,19.92
2022-09-26T06:38:38.167Z,19.93
2022-09-26T06:41:07.624Z,19.94
2022-09-26T06:43:34.552Z,19.95
2022-09-26T06:46:01.098Z,19.97
2022-09-26T06:48:27.749Z,19.97
2022-09-26T06:50:55.472Z,19.98
2022-09-26T06:53:22.041Z,19.97
2022-09-26T06:55:49.507Z,20.00
2022-09-26T06:58:16.087Z,20.01
2022-09-26T07:00:42.754Z,20.00
2022-09-26T07:03:09.451Z,20.02
2022-09-26T07:05:36.050Z,20.01
2022-09-26T07:08:03.163Z,20.02
2022-09-26T07:10:30.536Z,20.03
2022-09-26T07:13:05.354Z,20.04
2022-09-26T07:15:33.439Z,20.03
2022-09-26T07:18:02.515Z,20.05
2022-09-26T07:20:32.129Z,20.05
2022-09-26T07:23:05.386Z,20.04
2022-09-26T07:25:32.153Z,20.05
2022-09-26T07:27:59.006Z,20.05
2022-09-26T07:30:25.795Z,20.06
2022-09-26T07:32:52.402Z,20.06
2022-09-26T07:35:19.241Z,20.07
2022-09-26T07:37:46.187Z,20.07
2022-09-26T07:40:12.837Z,20.07
2022-09-26T07:42:39.565Z,20.08
2022-09-26T07:45:28.729Z,20.08
2022-09-26T07:48:11.895Z,20.08
2022-09-26T07:50:38.502Z,20.11
2022-09-26T07:53:05.085Z,20.12
2022-09-26T07:55:31.738Z,20.11
2022-09-26T07:57:59.251Z,20.12
2022-09-26T08:00:26.416Z,20.13
2022-09-26T08:02:53.239Z,20.13
2022-09-26T08:05:20.123Z,20.14
2022-09-26T08:07:47.614Z,20.15
2022-09-26T08:10:22.142Z,20.15
2022-09-26T08:12:48.820Z,20.15
2022-09-26T08:15:15.629Z,20.16
2022-09-26T08:17:43.367Z,20.16
2022-09-26T08:20:10.262Z,20.17
2022-09-26T08:22:37.160Z,20.18
2022-09-26T08:25:04.279Z,20.17
2022-09-26T08:27:34.532Z,20.18
2022-09-26T08:30:06.640Z,20.18
2022-09-26T08:32:37.187Z,20.19
2022-09-26T08:35:03.886Z,20.18
2022-09-26T08:37:31.196Z,20.19
2022-09-26T08:39:57.878Z,20.19
2022-09-26T08:42:28.654Z,20.17
2022-09-26T08:45:28.410Z,20.14
2022-09-26T08:48:14.822Z,20.12
2022-09-26T08:50:56.989Z,20.10
2022-09-26T08:53:28.639Z,20.09
2022-09-26T08:55:55.679Z,20.08
2022-09-26T08:58:44.647Z,20.08
2022-09-26T09:01:14.867Z,20.07
2022-09-26T09:03:55.578Z,20.06
2022-09-26T09:06:22.165Z,20.09
2022-09-26T09:08:51.829Z,20.13
2022-09-26T09:11:43.273Z,20.14
2022-09-26T09:14:33.165Z,20.13
2022-09-26T09:17:14.132Z,20.13
2022-09-26T09:19:52.708Z,20.11
2022-09-26T09:22:31.285Z,20.11
2022-09-26T09:25:04.927Z,20.12
2022-09-26T09:28:03.970Z,20.12
2022-09-26T09:30:39.952Z,20.17
2022-09-26T09:33:21.657Z,20.21
2022-09-26T09:35:51.472Z,20.23
2022-09-26T09:38:20.644Z,20.26
2022-09-26T09:40:57.311Z,20.29
2022-09-26T09:43:30.830Z,20.33
2022-09-26T09:46:06.306Z,20.32
2022-09-26T09:48:33.027Z,20.31
2022-09-26T09:51:12.350Z,20.30
2022-09-26T09:53:44.717Z,20.30
2022-09-26T09:56:22.589Z,20.35
2022-09-26T09:58:58.726Z,20.34
2022-09-26T10:01:28.552Z,20.37
2022-09-26T10:03:57.597Z,20.37
2022-09-26T10:06:46.067Z,20.37
2022-09-26T10:09:40.747Z,20.34
2022-09-26T10:12:19.265Z,20.35
2022-09-26T10:15:11.752Z,20.33
2022-09-26T10:17:40.443Z,20.33
2022-09-26T10:20:15.086Z,20.35
2022-09-26T10:22:45.054Z,20.36
2022-09-26T10:25:19.553Z,20.33
2022-09-26T10:27:48.030Z,20.30
2022-09-26T10:30:19.919Z,20.27
2022-09-26T10:32:49.847Z,20.24
2022-09-26T10:35:43.648Z,20.26
2022-09-26T10:38:23.792Z,20.29
2022-09-26T10:40:55.390Z,20.32
2022-09-26T10:43:33.046Z,20.34
2022-09-26T10:46:04.211Z,20.28
2022-09-26T10:48:42.948Z,20.27
2022-09-26T10:51:09.516Z,20.24
2022-09-26T10:53:37.912Z,20.24
2022-09-26T10:56:10.959Z,20.21
2022-09-26T10:58:43.160Z,20.18
2022-09-26T11:01:25.652Z,20.17
2022-09-26T11:03:58.462Z,20.17
2022-09-26T11:06:33.222Z,20.14
2022-09-26T11:09:02.542Z,20.13
2022-09-26T11:11:37.596Z,20.12
2022-09-26T11:14:07.536Z,20.15
2022-09-26T11:16:43.449Z,20.13
2022-09-26T11:19:22.436Z,20.13
2022-09-26T11:22:05.820Z,20.13
2022-09-26T11:24:45.956Z,20.10
2022-09-26T11:27:24.124Z,20.10
2022-09-26T11:30:02.137Z,20.09
2022-09-26T11:32:42.197Z,20.08
2022-09-26T11:35:30.629Z,20.07
2022-09-26T11:38:05.701Z,20.07
2022-09-26T11:40:32.491Z,20.11
2022-09-26T11:43:25.410Z,20.11
2022-09-26T11:46:15.408Z,20.07
2022-09-26T11:49:01.032Z,20.05
2022-09-26T11:51:39.005Z,20.01
2022-09-26T11:54:32.498Z,20.01
2022-09-26T11:57:01.613Z,19.98
2022-09-26T12:00:02.172Z,20.00
2022-09-26T12:03:07.136Z,20.00
2022-09-26T12:05:44.415Z,20.01
2022-09-26T12:08:23.868Z,20.00
2022-09-26T12:10:50.292Z,20.01
2022-09-26T12:13:52.500Z,20.03
2022-09-26T12:16:22.208Z,20.08
2022-09-26T12:19:15.555Z,20.07
2022-09-26T12:22:20.686Z,20.08
2022-09-26T12:25:22.164Z,20.07
2022-09-26T12:28:10.221Z,20.07
2022-09-26T12:30:44.832Z,20.11
2022-09-26T12:33:30.157Z,20.14
2022-09-26T12:36:09.076Z,20.14
2022-09-26T12:39:00.452Z,20.13
2022-09-26T12:41:51.777Z,20.13
2022-09-26T12:44:56.643Z,20.12
2022-09-26T12:47:39.215Z,20.12
2022-09-26T12:50:24.936Z,20.13
2022-09-26T12:53:18.223Z,20.13
2022-09-26T12:55:54.391Z,20.13
2022-09-26T12:58:27.081Z,20.12
2022-09-26T13:01:28.863Z,20.12
2022-09-26T13:04:14.899Z,20.11
2022-09-26T13:07:14.781Z,20.11
2022-09-26T13:10:03.041Z,20.11
2022-09-26T13:12:42.481Z,20.11
2022-09-26T13:15:19.393Z,20.12
2022-09-26T13:17:48.002Z,20.11
2022-09-26T13:20:21.579Z,20.12
2022-09-26T13:23:02.238Z,20.12
2022-09-26T13:25:39.830Z,20.12
2022-09-26T13:28:07.193Z,20.13
2022-09-26T13:30:38.899Z,20.14
2022-09-26T13:33:33.436Z,20.13
2022-09-26T13:36:00.833Z,20.15
2022-09-26T13:38:52.937Z,20.14
2022-09-26T13:41:44.784Z,20.14
2022-09-26T13:44:45.700Z,20.14
2022-09-26T13:47:27.365Z,20.14
2022-09-26T13:50:08.526Z,20.15
2022-09-26T13:52:45.173Z,20.15
2022-09-26T13:55:19.298Z,20.15
2022-09-26T13:58:03.931Z,20.15
2022-09-26T14:00:30.510Z,20.15
2022-09-26T14:03:19.192Z,20.15
2022-09-26T14:05:52.643Z,20.14
2022-09-26T14:08:43.988Z,20.16
2022-09-26T14:11:30.324Z,20.16
2022-09-26T14:14:18.976Z,20.15
2022-09-26T14:16:51.275Z,20.14
2022-09-26T14:19:28.956Z,20.13
2022-09-26T14:22:05.933Z,20.12
2022-09-26T14:24:33.502Z,20.11
2022-09-26T14:27:05.168Z,20.12
2022-09-26T14:29:36.087Z,20.13
2022-09-26T14:32:10.438Z,20.13
2022-09-26T14:34:43.785Z,20.13
2022-09-26T14:37:25.459Z,20.15
2022-09-26T14:39:52.907Z,20.15
2022-09-26T14:42:24.422Z,20.15
2022-09-26T14:45:02.043Z,20.17
2022-09-26T14:47:30.844Z,20.18
2022-09-26T14:50:05.616Z,20.17
2022-09-26T14:52:32.755Z,20.18
2022-09-26T14:55:01.135Z,20.19
2022-09-26T14:57:30.783Z,20.20
2022-09-26T14:59:58.947Z,20.20
2022-09-26T15:02:28.153Z,20.21
2022-09-26T15:05:09.910Z,20.23
2022-09-26T15:07:41.678Z,20.23
2022-09-26T15:10:21.909Z,20.23
2022-09-26T15:12:57.241Z,20.23
2022-09-26T15:15:42.105Z,20.24
2022-09-26T15:18:35.614Z,20.24
2022-09-26T15:21:28.420Z,20.25
2022-09-26T15:23:58.293Z,20.25
2022-09-26T15:26:32.132Z,20.25
2022-09-26T15:28:58.688Z,20.25
2022-09-26T15:31:28.013Z,20.25
2022-09-26T15:33:55.698Z,20.26
2022-09-26T15:36:22.249Z,20.26
2022-09-26T15:38:49.311Z,20.26
2022-09-26T15:41:37.405Z,20.26
2022-09-26T15:44:07.005Z,20.27
2022-09-26T15:46:33.671Z,20.26
2022-09-26T15:49:00.608Z,20.26
2022-09-26T15:51:33.086Z,20.29
2022-09-26T15:54:05.057Z,20.30
2022-09-26T15:56:45.373Z,20.30
2022-09-26T15:59:14.767Z,20.31
2022-09-26T16:01:42.837Z,20.32
2022-09-26T16:04:14.208Z,20.32
2022-09-26T16:06:41.882Z,20.32
2022-09-26T16:09:11.329Z,20.32
2022-09-26T16:11:46.322Z,20.32
2022-09-26T16:14:41.485Z,20.33
2022-09-26T16:17:22.830Z,20.32
2022-09-26T16:19:54.132Z,20.33
2022-09-26T16:22:26.695Z,20.33
2022-09-26T16:24:53.281Z,20.33
2022-09-26T16:27:24.490Z,20.33
2022-09-26T16:29:52.436Z,20.34
2022-09-26T16:32:19.753Z,20.33
2022-09-26T16:34:46.551Z,20.34
2022-09-26T16:37:19.817Z,20.34
2022-09-26T16:39:56.008Z,20.34
2022-09-26T16:42:25.535Z,20.33
2022-09-26T16:44:54.334Z,20.35
2022-09-26T16:47:26.584Z,20.36
2022-09-26T16:49:53.161Z,20.35
2022-09-26T16:52:28.902Z,20.34
2022-09-26T16:54:57.119Z,20.35
2022-09-26T16:57:29.409Z,20.34
2022-09-26T17:00:18.713Z,20.36
2022-09-26T17:02:45.495Z,20.36
2022-09-26T17:05:18.699Z,20.35
2022-09-26T17:07:46.298Z,20.36
2022-09-26T17:10:12.982Z,20.36
2022-09-26T17:12:39.739Z,20.37
2022-09-26T17:15:07.517Z,20.37
2022-09-26T17:17:34.261Z,20.36
2022-09-26T17:20:01.920Z,20.36
2022-09-26T17:22:28.570Z,20.37
2022-09-26T17:24:55.229Z,20.37
2022-09-26T17:27:27.152Z,20.38
2022-09-26T17:29:56.064Z,20.37
2022-09-26T17:32:31.082Z,20.39
2022-09-26T17:35:01.079Z,20.38
2022-09-26T17:37:28.333Z,20.38
2022-09-26T17:39:55.291Z,20.38
2022-09-26T17:42:23.205Z,20.38
2022-09-26T17:44:50.503Z,20.38
2022-09-26T17:47:18.205Z,20.38
2022-09-26T17:49:48.218Z,20.38
2022-09-26T17:52:29.455Z,20.38
2022-09-26T17:55:01.342Z,20.39
2022-09-26T17:57:30.320Z,20.38
2022-09-26T17:59:57.408Z,20.38
2022-09-26T18:02:44.502Z,20.39
2022-09-26T18:05:45.617Z,20.39
2022-09-26T18:08:23.061Z,20.38
2022-09-26T18:10:55.031Z,20.40
2022-09-26T18:13:22.654Z,20.39
2022-09-26T18:15:53.125Z,20.39
2022-09-26T18:18:21.087Z,20.39
2022-09-26T18:20:49.350Z,20.40
2022-09-26T18:23:18.981Z,20.40
2022-09-26T18:25:47.435Z,20.38
2022-09-26T18:28:15.517Z,20.39
2022-09-26T18:30:43.026Z,20.39
2022-09-26T18:33:09.973Z,20.41
2022-09-26T18:35:36.600Z,20.40
2022-09-26T18:38:03.458Z,20.39
2022-09-26T18:40:30.203Z,20.39
2022-09-26T18:42:57.814Z,20.40
2022-09-26T18:45:28.996Z,20.41
2022-09-26T18:47:55.567Z,20.41
2022-09-26T18:50:31.031Z,20.40
2022-09-26T18:52:57.593Z,20.40
2022-09-26T18:55:43.377Z,20.40
2022-09-26T18:58:27.871Z,20.41
2022-09-26T19:01:15.795Z,20.40
2022-09-26T19:03:47.057Z,20.39
2022-09-26T19:06:16.090Z,20.40
2022-09-26T19:08:43.710Z,20.40
2022-09-26T19:11:23.430Z,20.40
2022-09-26T19:13:51.677Z,20.40
2022-09-26T19:16:18.515Z,20.41
2022-09-26T19:18:45.418Z,20.41
2022-09-26T19:21:28.283Z,20.40
2022-09-26T19:23:54.881Z,20.40
2022-09-26T19:26:32.105Z,20.40
2022-09-26T19:28:58.954Z,20.40
2022-09-26T19:31:26.409Z,20.40
2022-09-26T19:33:53.164Z,20.41
2022-09-26T19:36:19.770Z,20.41
2022-09-26T19:38:46.558Z,20.40
2022-09-26T19:41:13.262Z,20.41
2022-09-26T19:43:42.875Z,20.39
2022-09-26T19:46:17.150Z,20.40
2022-09-26T19:48:46.877Z,20.40
2022-09-26T19:51:14.667Z,20.40
2022-09-26T19:53:41.301Z,20.40
2022-09-26T19:56:08.011Z,20.41
2022-09-26T19:58:34.813Z,20.41
2022-09-26T20:01:06.749Z,20.41
2022-09-26T20:03:35.499Z,20.41
2022-09-26T20:06:02.371Z,20.41
2022-09-26T20:08:28.935Z,20.41
2022-09-26T20:10:55.775Z,20.40
2022-09-26T20:13:22.369Z,20.40
2022-09-26T20:15:49.087Z,20.40
2022-09-26T20:18:20.746Z,20.39
2022-09-26T20:20:55.716Z,20.41
2022-09-26T20:23:26.393Z,20.41
2022-09-26T20:25:53.806Z,20.40
2022-09-26T20:28:20.726Z,20.39
2022-09-26T20:30:54.359Z,20.39
2022-09-26T20:33:24.643Z,20.39
2022-09-26T20:36:00.267Z,20.40
2022-09-26T20:38:37.884Z,20.40
2022-09-26T20:41:16.450Z,20.39
2022-09-26T20:43:44.339Z,20.38
2022-09-26T20:46:11.057Z,20.39
2022-09-26T20:48:37.849Z,20.39
2022-09-26T20:51:04.835Z,20.38
2022-09-26T20:53:31.502Z,20.38
2022-09-26T20:55:58.176Z,20.38
2022-09-26T20:58:24.726Z,20.38
2022-09-26T21:00:53.239Z,20.37
2022-09-26T21:03:21.960Z,20.38
2022-09-26T21:05:48.737Z,20.37
2022-09-26T21:08:26.294Z,20.36
2022-09-26T21:10:53.000Z,20.38
2022-09-26T21:13:19.539Z,20.38
2022-09-26T21:15:46.132Z,20.36
2022-09-26T21:18:35.611Z,20.37
2022-09-26T21:21:07.485Z,20.36
2022-09-26T21:23:39.014Z,20.36
2022-09-26T21:26:05.744Z,20.36
2022-09-26T21:28:32.369Z,20.36
2022-09-26T21:31:07.811Z,20.35
2022-09-26T21:33:34.420Z,20.36
2022-09-26T21:36:01.192Z,20.35
2022-09-26T21:38:27.755Z,20.34
2022-09-26T21:40:56.126Z,20.35
2022-09-26T21:43:23.256Z,20.34
2022-09-26T21:45:50.083Z,20.33
2022-09-26T21:48:16.792Z,20.33
2022-09-26T21:50:52.874Z,20.34
2022-09-26T21:53:24.609Z,20.34
2022-09-26T21:55:52.900Z,20.33
2022-09-26T21:58:23.061Z,20.33
2022-09-26T22:00:50.867Z,20.32
2022-09-26T22:03:17.645Z,20.32
2022-09-26T22:05:44.281Z,20.32
2022-09-26T22:08:10.853Z,20.32
2022-09-26T22:10:37.500Z,20.33
2022-09-26T22:13:04.388Z,20.32
2022-09-26T22:15:33.727Z,20.32
2022-09-26T22:18:01.588Z,20.31
2022-09-26T22:20:28.190Z,20.31
2022-09-26T22:22:55.544Z,20.31
2022-09-26T22:25:22.113Z,20.30
2022-09-26T22:27:48.675Z,20.31
2022-09-26T22:30:15.476Z,20.31
2022-09-26T22:32:42.104Z,20.30
2022-09-26T22:35:08.744Z,20.29
2022-09-26T22:37:35.308Z,20.29
2022-09-26T22:40:02.564Z,20.29
2022-09-26T22:42:29.198Z,20.29
2022-09-26T22:45:01.871Z,20.29
2022-09-26T22:47:28.472Z,20.29
2022-09-26T22:49:55.070Z,20.28
2022-09-26T22:52:21.598Z,20.28
2022-09-26T22:54:48.149Z,20.28
2022-09-26T22:57:15.220Z,20.28
2022-09-26T22:59:44.225Z,20.28
2022-09-26T23:02:10.811Z,20.27
2022-09-26T23:04:49.793Z,20.27
2022-09-26T23:07:17.979Z,20.28
2022-09-26T23:09:44.633Z,20.27
2022-09-26T23:12:11.197Z,20.28
2022-09-26T23:14:38.411Z,20.26
2022-09-26T23:17:05.608Z,20.26
2022-09-26T23:19:32.633Z,20.26
2022-09-26T23:21:59.482Z,20.26
2022-09-26T23:24:26.094Z,20.26
2022-09-26T23:26:52.718Z,20.26
2022-09-26T23:29:19.268Z,20.25
2022-09-26T23:31:45.856Z,20.25
2022-09-26T23:34:12.412Z,20.25
2022-09-26T23:36:39.015Z,20.25
2022-09-26T23:39:05.703Z,20.25
2022-09-26T23:41:32.521Z,20.24
2022-09-26T23:43:59.112Z,20.25
2022-09-26T23:46:25.826Z,20.25
2022-09-26T23:48:52.596Z,20.24
2022-09-26T23:51:19.197Z,20.24
2022-09-26T23:53:46.486Z,20.23
2022-09-26T23:56:14.095Z,20.24
2022-09-26T23:58:40.946Z,20.23
